createdAt,value
2017-12-02T00:00:26.798Z,98091.41
2017-12-02T00:00:58.402Z,98096.95
2017-12-02T00:01:30.143Z,98092.26
2017-12-02T00:02:01.747Z,98090.93
2017-12-02T00:02:33.427Z,98089.27
2017-12-02T00:03:05.032Z,98094.39
2017-12-02T00:03:36.634Z,98093.95
2017-12-02T00:04:08.254Z,98093.48
2017-12-02T00:04:39.880Z,98094.77
2017-12-02T00:05:11.636Z,98094.70
2017-12-02T00:05:43.269Z,98093.01
2017-12-02T00:06:14.875Z,98093.53
2017-12-02T00:06:46.502Z,98092.68
2017-12-02T00:07:18.126Z,98103.70
2017-12-02T00:07:49.799Z,98097.73
2017-12-02T00:08:21.407Z,98096.04
2017-12-02T00:08:53.129Z,98096.94
2017-12-02T00:09:25.015Z,98102.86
2017-12-02T00:09:56.622Z,98103.32
2017-12-02T00:10:28.223Z,98101.16
2017-12-02T00:10:59.826Z,98106.26
2017-12-02T00:11:31.647Z,98105.83
2017-12-02T00:12:03.247Z,98102.41
2017-12-02T00:12:34.874Z,98103.27
2017-12-02T00:13:06.478Z,98108.80
2017-12-02T00:13:38.078Z,98107.11
2017-12-02T00:14:09.702Z,98108.76
2017-12-02T00:14:41.498Z,98107.47
2017-12-02T00:15:13.098Z,98104.98
2017-12-02T00:15:44.713Z,98103.70
2017-12-02T00:16:16.424Z,98104.93
2017-12-02T00:16:48.062Z,98107.96
2017-12-02T00:17:20.010Z,98107.53
2017-12-02T00:17:51.653Z,98105.41
2017-12-02T00:18:23.306Z,98108.44
2017-12-02T00:18:54.940Z,98103.33
2017-12-02T00:19:26.542Z,98104.59
2017-12-02T00:19:58.152Z,98104.13
2017-12-02T00:20:29.779Z,98106.69
2017-12-02T00:21:01.508Z,98105.41
2017-12-02T00:21:33.150Z,98106.26
2017-12-02T00:22:04.790Z,98104.13
2017-12-02T00:22:36.434Z,98104.17
2017-12-02T00:23:08.075Z,98105.05
2017-12-02T00:23:39.724Z,98111.48
2017-12-02T00:24:11.359Z,98103.39
2017-12-02T00:24:42.958Z,98110.22
2017-12-02T00:25:14.567Z,98111.53
2017-12-02T00:25:46.285Z,98107.23
2017-12-02T00:26:17.925Z,98109.78
2017-12-02T00:26:49.567Z,98109.84
2017-12-02T00:27:21.223Z,98110.69
2017-12-02T00:27:52.849Z,98109.88
2017-12-02T00:28:24.494Z,98113.67
2017-12-02T00:28:56.136Z,98117.51
2017-12-02T00:29:27.779Z,98111.13
2017-12-02T00:29:59.417Z,98110.31
2017-12-02T00:30:31.061Z,98117.55
2017-12-02T00:31:02.703Z,98117.50
2017-12-02T00:31:34.343Z,98119.68
2017-12-02T00:32:05.948Z,98126.87
2017-12-02T00:32:37.547Z,98122.23
2017-12-02T00:33:09.272Z,98120.59
2017-12-02T00:33:40.907Z,98124.87
2017-12-02T00:34:12.545Z,98124.83
2017-12-02T00:34:44.254Z,98123.59
2017-12-02T00:35:15.883Z,98127.81
2017-12-02T00:35:47.514Z,98128.69
2017-12-02T00:36:19.124Z,98126.99
2017-12-02T00:36:50.727Z,98125.67
2017-12-02T00:37:22.331Z,98130.83
2017-12-02T00:37:53.982Z,98129.56
2017-12-02T00:38:25.607Z,98130.83
2017-12-02T00:38:57.332Z,98131.25
2017-12-02T00:39:28.934Z,98134.23
2017-12-02T00:40:00.537Z,98137.23
2017-12-02T00:40:32.166Z,98136.41
2017-12-02T00:41:03.900Z,98136.44
2017-12-02T00:41:35.497Z,98133.87
2017-12-02T00:42:07.095Z,98130.91
2017-12-02T00:42:38.826Z,98130.91
2017-12-02T00:43:10.479Z,98133.92
2017-12-02T00:43:42.109Z,98142.02
2017-12-02T00:44:13.707Z,98134.89
2017-12-02T00:44:45.335Z,98136.13
2017-12-02T00:45:16.963Z,98134.03
2017-12-02T00:45:48.677Z,98131.48
2017-12-02T00:46:20.278Z,98132.77
2017-12-02T00:46:51.879Z,98133.19
2017-12-02T00:47:23.603Z,98132.38
2017-12-02T00:47:55.245Z,98133.19
2017-12-02T00:48:26.890Z,98128.50
2017-12-02T00:48:58.529Z,98128.45
2017-12-02T00:49:31.127Z,98129.73
2017-12-02T00:50:02.755Z,98125.52
2017-12-02T00:50:34.373Z,98125.95
2017-12-02T00:51:06.014Z,98126.33
2017-12-02T00:51:37.614Z,98125.04
2017-12-02T00:52:09.233Z,98126.79
2017-12-02T00:52:40.854Z,98126.80
2017-12-02T00:53:12.497Z,98129.36
2017-12-02T00:53:44.162Z,98127.64
2017-12-02T00:54:15.869Z,98134.89
2017-12-02T00:54:47.508Z,98133.19
2017-12-02T00:55:19.150Z,98132.39
2017-12-02T00:55:50.758Z,98132.39
2017-12-02T00:56:22.358Z,98130.31
2017-12-02T00:56:54.079Z,98131.17
2017-12-02T00:57:25.682Z,98132.06
2017-12-02T00:57:57.318Z,98133.30
2017-12-02T00:58:28.926Z,98134.99
2017-12-02T00:59:00.592Z,98137.55
2017-12-02T00:59:32.195Z,98132.02
2017-12-02T01:00:03.794Z,98133.30
2017-12-02T01:00:35.419Z,98134.57
2017-12-02T01:01:07.027Z,98141.39
2017-12-02T01:01:38.856Z,98140.53
2017-12-02T01:02:10.506Z,98140.11
2017-12-02T01:02:42.446Z,98137.97
2017-12-02T01:03:14.089Z,98136.27
2017-12-02T01:03:45.694Z,98140.84
2017-12-02T01:04:17.299Z,98140.00
2017-12-02T01:04:49.014Z,98145.04
2017-12-02T01:05:20.655Z,98141.64
2017-12-02T01:05:52.258Z,98143.77
2017-12-02T01:06:23.862Z,98140.75
2017-12-02T01:06:55.715Z,98141.16
2017-12-02T01:07:27.378Z,98139.46
2017-12-02T01:07:59.030Z,98148.83
2017-12-02T01:08:30.814Z,98143.34
2017-12-02T01:09:02.764Z,98145.46
2017-12-02T01:09:34.406Z,98140.75
2017-12-02T01:10:06.045Z,98146.75
2017-12-02T01:10:37.689Z,98145.42
2017-12-02T01:11:09.340Z,98144.56
2017-12-02T01:11:40.982Z,98144.19
2017-12-02T01:12:12.626Z,98151.00
2017-12-02T01:12:44.254Z,98138.67
2017-12-02T01:13:15.899Z,98143.77
2017-12-02T01:13:47.586Z,98138.28
2017-12-02T01:14:19.226Z,98152.22
2017-12-02T01:14:50.831Z,98149.24
2017-12-02T01:15:22.467Z,98148.39
2017-12-02T01:15:54.071Z,98155.63
2017-12-02T01:16:25.751Z,98150.95
2017-12-02T01:16:57.708Z,98160.31
2017-12-02T01:17:29.346Z,98155.22
2017-12-02T01:18:00.986Z,98157.34
2017-12-02T01:18:32.631Z,98154.30
2017-12-02T01:19:04.290Z,98148.94
2017-12-02T01:19:35.908Z,98157.33
2017-12-02T01:20:07.506Z,98161.96
2017-12-02T01:20:39.110Z,98157.76
2017-12-02T01:21:10.738Z,98167.13
2017-12-02T01:21:42.387Z,98159.42
2017-12-02T01:22:14.314Z,98160.74
2017-12-02T01:22:45.918Z,98162.88
2017-12-02T01:23:17.522Z,98166.75
2017-12-02T01:23:49.355Z,98166.70
2017-12-02T01:24:20.993Z,98162.81
2017-12-02T01:24:52.942Z,98162.39
2017-12-02T01:25:24.581Z,98162.81
2017-12-02T01:25:56.226Z,98169.63
2017-12-02T01:26:27.866Z,98167.08
2017-12-02T01:26:59.467Z,98165.31
2017-12-02T01:27:31.066Z,98171.28
2017-12-02T01:28:02.794Z,98167.92
2017-12-02T01:28:34.394Z,98169.63
2017-12-02T01:29:05.994Z,98170.05
2017-12-02T01:29:37.720Z,98172.18
2017-12-02T01:30:09.327Z,98171.37
2017-12-02T01:30:41.622Z,98171.28
2017-12-02T01:31:13.274Z,98179.78
2017-12-02T01:31:44.918Z,98177.23
2017-12-02T01:32:16.558Z,98173.84
2017-12-02T01:32:48.185Z,98178.89
2017-12-02T01:33:19.825Z,98187.02
2017-12-02T01:33:51.430Z,98177.23
2017-12-02T01:34:23.050Z,98187.45
2017-12-02T01:34:54.675Z,98178.51
2017-12-02T01:35:26.395Z,98181.49
2017-12-02T01:35:57.994Z,98176.38
2017-12-02T01:36:29.638Z,98175.52
2017-12-02T01:37:01.251Z,98181.05
2017-12-02T01:37:32.878Z,98174.66
2017-12-02T01:38:04.506Z,98177.61
2017-12-02T01:38:36.176Z,98186.98
2017-12-02T01:39:07.799Z,98180.59
2017-12-02T01:39:39.530Z,98179.37
2017-12-02T01:40:11.174Z,98181.49
2017-12-02T01:40:42.813Z,98180.69
2017-12-02T01:41:14.453Z,98185.38
2017-12-02T01:41:46.098Z,98186.18
2017-12-02T01:42:17.754Z,98187.08
2017-12-02T01:42:49.390Z,98187.51
2017-12-02T01:43:21.024Z,98188.78
2017-12-02T01:43:52.691Z,98184.90
2017-12-02T01:44:24.307Z,98184.00
2017-12-02T01:44:55.911Z,98188.69
2017-12-02T01:45:27.515Z,98186.17
2017-12-02T01:45:59.141Z,98192.14
2017-12-02T01:46:30.782Z,98190.86
2017-12-02T01:47:02.516Z,98190.91
2017-12-02T01:47:34.118Z,98191.29
2017-12-02T01:48:05.798Z,98195.55
2017-12-02T01:48:37.403Z,98192.61
2017-12-02T01:49:08.999Z,98191.33
2017-12-02T01:49:40.726Z,98193.41
2017-12-02T01:50:12.365Z,98189.09
2017-12-02T01:50:44.007Z,98196.31
2017-12-02T01:51:15.652Z,98195.73
2017-12-02T01:51:47.294Z,98190.67
2017-12-02T01:52:18.935Z,98198.34
2017-12-02T01:52:50.577Z,98198.39
2017-12-02T01:53:22.227Z,98201.47
2017-12-02T01:53:53.830Z,98194.24
2017-12-02T01:54:25.459Z,98192.53
2017-12-02T01:54:57.066Z,98195.92
2017-12-02T01:55:28.667Z,98195.92
2017-12-02T01:56:00.294Z,98193.82
2017-12-02T01:56:31.898Z,98195.07
2017-12-02T01:57:03.518Z,98196.39
2017-12-02T01:57:35.355Z,98192.92
2017-12-02T01:58:06.994Z,98194.61
2017-12-02T01:58:38.674Z,98192.86
2017-12-02T01:59:10.303Z,98192.02
2017-12-02T01:59:42.229Z,98194.56
2017-12-02T02:00:13.871Z,98192.85
2017-12-02T02:00:45.479Z,98191.15
2017-12-02T02:01:17.091Z,98197.55
2017-12-02T02:01:48.898Z,98195.47
2017-12-02T02:02:20.753Z,98196.33
2017-12-02T02:02:52.575Z,98192.97
2017-12-02T02:03:24.178Z,98193.36
2017-12-02T02:03:55.778Z,98198.49
2017-12-02T02:04:27.620Z,98201.48
2017-12-02T02:04:59.223Z,98202.36
2017-12-02T02:05:30.842Z,98197.66
2017-12-02T02:06:02.454Z,98195.53
2017-12-02T02:06:34.188Z,98194.66
2017-12-02T02:07:05.863Z,98197.64
2017-12-02T02:07:37.490Z,98198.08
2017-12-02T02:08:09.114Z,98202.34
2017-12-02T02:08:40.753Z,98198.11
2017-12-02T02:09:12.431Z,98201.94
2017-12-02T02:09:44.279Z,98204.91
2017-12-02T02:10:15.989Z,98205.39
2017-12-02T02:10:47.591Z,98201.55
2017-12-02T02:11:19.219Z,98201.08
2017-12-02T02:11:50.875Z,98200.70
2017-12-02T02:12:22.864Z,98205.81
2017-12-02T02:12:54.467Z,98199.84
2017-12-02T02:13:26.070Z,98200.27
2017-12-02T02:13:57.790Z,98205.38
2017-12-02T02:14:29.431Z,98210.45
2017-12-02T02:15:01.039Z,98209.17
2017-12-02T02:15:32.662Z,98211.30
2017-12-02T02:16:04.290Z,98210.06
2017-12-02T02:16:35.924Z,98213.85
2017-12-02T02:17:07.555Z,98213.47
2017-12-02T02:17:39.222Z,98219.48
2017-12-02T02:18:10.826Z,98218.16
2017-12-02T02:18:42.470Z,98213.90
2017-12-02T02:19:14.209Z,98216.03
2017-12-02T02:19:45.850Z,98222.84
2017-12-02T02:20:17.489Z,98216.50
2017-12-02T02:20:49.133Z,98222.45
2017-12-02T02:21:20.734Z,98216.50
2017-12-02T02:21:52.339Z,98216.87
2017-12-02T02:22:24.060Z,98214.81
2017-12-02T02:22:55.699Z,98216.07
2017-12-02T02:23:27.302Z,98214.37
2017-12-02T02:23:58.948Z,98217.36
2017-12-02T02:24:30.934Z,98216.94
2017-12-02T02:25:02.574Z,98217.36
2017-12-02T02:25:34.220Z,98222.09
2017-12-02T02:26:05.819Z,98226.77
2017-12-02T02:26:37.418Z,98222.95
2017-12-02T02:27:09.144Z,98214.90
2017-12-02T02:27:40.982Z,98222.13
2017-12-02T02:28:12.735Z,98215.70
2017-12-02T02:28:44.377Z,98220.80
2017-12-02T02:29:16.019Z,98222.47
2017-12-02T02:29:47.687Z,98220.80
2017-12-02T02:30:19.319Z,98222.08
2017-12-02T02:30:50.942Z,98220.34
2017-12-02T02:31:22.543Z,98224.22
2017-12-02T02:31:54.162Z,98223.80
2017-12-02T02:32:25.834Z,98222.56
2017-12-02T02:32:57.438Z,98225.49
2017-12-02T02:33:29.155Z,98225.97
2017-12-02T02:34:00.760Z,98224.23
2017-12-02T02:34:32.382Z,98218.30
2017-12-02T02:35:03.986Z,98224.65
2017-12-02T02:35:35.592Z,98228.47
2017-12-02T02:36:07.194Z,98234.86
2017-12-02T02:36:38.827Z,98231.92
2017-12-02T02:37:10.647Z,98235.70
2017-12-02T02:37:42.313Z,98230.17
2017-12-02T02:38:13.930Z,98236.14
2017-12-02T02:38:45.574Z,98236.98
2017-12-02T02:39:17.182Z,98235.67
2017-12-02T02:39:48.782Z,98236.09
2017-12-02T02:40:20.407Z,98233.97
2017-12-02T02:40:52.142Z,98238.22
2017-12-02T02:41:23.783Z,98238.64
2017-12-02T02:41:55.408Z,98237.80
2017-12-02T02:42:27.015Z,98238.69
2017-12-02T02:42:58.659Z,98235.70
2017-12-02T02:43:30.287Z,98235.28
2017-12-02T02:44:01.895Z,98232.69
2017-12-02T02:44:33.636Z,98234.86
2017-12-02T02:45:05.276Z,98231.88
2017-12-02T02:45:36.879Z,98234.39
2017-12-02T02:46:08.508Z,98239.48
2017-12-02T02:46:40.142Z,98233.16
2017-12-02T02:47:11.775Z,98235.28
2017-12-02T02:47:43.447Z,98237.42
2017-12-02T02:48:15.050Z,98238.31
2017-12-02T02:48:46.678Z,98238.70
2017-12-02T02:49:18.411Z,98239.11
2017-12-02T02:49:50.054Z,98239.11
2017-12-02T02:50:21.695Z,98239.13
2017-12-02T02:50:53.295Z,98238.27
2017-12-02T02:51:24.898Z,98237.03
2017-12-02T02:51:56.550Z,98239.55
2017-12-02T02:52:28.263Z,98239.16
2017-12-02T02:52:59.902Z,98242.53
2017-12-02T02:53:31.546Z,98243.38
2017-12-02T02:54:03.189Z,98241.23
2017-12-02T02:54:34.831Z,98243.38
2017-12-02T02:55:06.472Z,98245.08
2017-12-02T02:55:38.083Z,98248.91
2017-12-02T02:56:09.947Z,98243.84
2017-12-02T02:56:42.222Z,98245.94
2017-12-02T02:57:13.962Z,98250.66
2017-12-02T02:57:45.566Z,98242.99
2017-12-02T02:58:17.195Z,98246.36
2017-12-02T02:58:48.827Z,98252.31
2017-12-02T02:59:20.432Z,98244.66
2017-12-02T02:59:52.171Z,98247.63
2017-12-02T03:00:23.775Z,98247.20
2017-12-02T03:00:55.374Z,98247.63
2017-12-02T03:01:27.014Z,98242.95
2017-12-02T03:01:58.744Z,98248.09
2017-12-02T03:02:30.574Z,98249.38
2017-12-02T03:03:02.330Z,98250.17
2017-12-02T03:03:33.968Z,98247.15
2017-12-02T03:04:05.569Z,98253.55
2017-12-02T03:04:37.195Z,98250.09
2017-12-02T03:05:08.798Z,98251.41
2017-12-02T03:05:40.398Z,98251.83
2017-12-02T03:06:12.003Z,98249.66
2017-12-02T03:06:44.651Z,98250.55
2017-12-02T03:07:16.386Z,98250.52
2017-12-02T03:07:47.990Z,98251.36
2017-12-02T03:08:19.620Z,98250.52
2017-12-02T03:08:51.230Z,98257.33
2017-12-02T03:09:22.954Z,98257.79
2017-12-02T03:09:54.595Z,98257.31
2017-12-02T03:10:26.203Z,98256.89
2017-12-02T03:10:57.798Z,98254.33
2017-12-02T03:11:29.521Z,98255.66
2017-12-02T03:12:01.182Z,98259.88
2017-12-02T03:12:32.819Z,98259.88
2017-12-02T03:13:04.486Z,98258.98
2017-12-02T03:13:36.366Z,98253.02
2017-12-02T03:14:08.000Z,98259.39
2017-12-02T03:14:39.606Z,98253.86
2017-12-02T03:15:11.230Z,98252.97
2017-12-02T03:15:42.963Z,98253.82
2017-12-02T03:16:14.606Z,98253.82
2017-12-02T03:16:46.247Z,98257.27
2017-12-02T03:17:17.851Z,98249.19
2017-12-02T03:17:49.450Z,98258.55
2017-12-02T03:18:21.322Z,98256.89
2017-12-02T03:18:52.927Z,98255.66
2017-12-02T03:19:24.764Z,98257.33
2017-12-02T03:19:56.371Z,98253.97
2017-12-02T03:20:27.996Z,98257.33
2017-12-02T03:20:59.625Z,98261.95
2017-12-02T03:21:31.273Z,98259.39
2017-12-02T03:22:02.875Z,98256.84
2017-12-02T03:22:34.616Z,98261.09
2017-12-02T03:23:06.257Z,98255.56
2017-12-02T03:23:37.862Z,98258.11
2017-12-02T03:24:09.491Z,98254.28
2017-12-02T03:24:41.099Z,98255.52
2017-12-02T03:25:12.745Z,98256.82
2017-12-02T03:25:44.474Z,98257.67
2017-12-02T03:26:16.122Z,98253.02
2017-12-02T03:26:47.750Z,98257.27
2017-12-02T03:27:19.389Z,98253.84
2017-12-02T03:27:50.991Z,98255.97
2017-12-02T03:28:22.635Z,98253.82
2017-12-02T03:28:54.258Z,98258.50
2017-12-02T03:29:25.899Z,98255.95
2017-12-02T03:29:57.522Z,98257.65
2017-12-02T03:30:29.151Z,98255.56
2017-12-02T03:31:00.887Z,98254.24
2017-12-02T03:31:32.494Z,98260.63
2017-12-02T03:32:04.122Z,98258.11
2017-12-02T03:32:35.726Z,98257.27
2017-12-02T03:33:07.359Z,98258.13
2017-12-02T03:33:39.096Z,98262.80
2017-12-02T03:34:10.699Z,98256.47
2017-12-02T03:34:42.378Z,98264.09
2017-12-02T03:35:14.020Z,98264.50
2017-12-02T03:35:45.619Z,98266.67
2017-12-02T03:36:17.241Z,98265.41
2017-12-02T03:36:48.947Z,98264.13
2017-12-02T03:37:20.551Z,98267.11
2017-12-02T03:37:52.146Z,98264.98
2017-12-02T03:38:23.873Z,98264.52
2017-12-02T03:38:55.475Z,98270.52
2017-12-02T03:39:27.121Z,98264.13
2017-12-02T03:39:58.726Z,98271.80
2017-12-02T03:40:30.441Z,98272.65
2017-12-02T03:41:02.082Z,98273.92
2017-12-02T03:41:33.723Z,98277.37
2017-12-02T03:42:05.367Z,98280.78
2017-12-02T03:42:37.019Z,98279.97
2017-12-02T03:43:08.658Z,98278.66
2017-12-02T03:43:40.291Z,98276.53
2017-12-02T03:44:11.930Z,98277.32
2017-12-02T03:44:43.572Z,98275.20
2017-12-02T03:45:15.183Z,98285.41
2017-12-02T03:45:46.811Z,98281.11
2017-12-02T03:46:18.450Z,98282.39
2017-12-02T03:46:50.147Z,98281.16
2017-12-02T03:47:21.785Z,98282.81
2017-12-02T03:47:53.427Z,98279.45
2017-12-02T03:48:25.036Z,98284.56
2017-12-02T03:48:56.640Z,98287.07
2017-12-02T03:49:28.266Z,98290.05
2017-12-02T03:49:59.898Z,98287.07
2017-12-02T03:50:32.094Z,98284.13
2017-12-02T03:51:03.726Z,98291.80
2017-12-02T03:51:35.404Z,98287.92
2017-12-02T03:52:07.034Z,98287.07
2017-12-02T03:52:38.662Z,98289.62
2017-12-02T03:53:10.291Z,98288.75
2017-12-02T03:53:42.102Z,98285.77
2017-12-02T03:54:13.744Z,98288.71
2017-12-02T03:54:45.361Z,98292.55
2017-12-02T03:55:16.990Z,98290.41
2017-12-02T03:55:48.610Z,98293.43
2017-12-02T03:56:20.219Z,98287.86
2017-12-02T03:56:51.854Z,98290.88
2017-12-02T03:57:23.596Z,98291.31
2017-12-02T03:57:55.245Z,98292.55
2017-12-02T03:58:26.877Z,98290.88
2017-12-02T03:58:58.542Z,98295.09
2017-12-02T03:59:30.187Z,98292.11
2017-12-02T04:00:01.838Z,98292.58
2017-12-02T04:00:33.454Z,98290.45
2017-12-02T04:01:05.088Z,98289.61
2017-12-02T04:01:36.731Z,98291.69
2017-12-02T04:02:08.410Z,98292.16
2017-12-02T04:02:40.271Z,98292.97
2017-12-02T04:03:11.964Z,98288.71
2017-12-02T04:03:43.605Z,98292.55
2017-12-02T04:04:15.555Z,98301.95
2017-12-02T04:04:47.200Z,98296.42
2017-12-02T04:05:18.858Z,98289.55
2017-12-02T04:05:50.506Z,98292.53
2017-12-02T04:06:22.123Z,98292.11
2017-12-02T04:06:53.764Z,98295.94
2017-12-02T04:07:25.438Z,98299.35
2017-12-02T04:07:57.058Z,98292.54
2017-12-02T04:08:28.694Z,98293.86
2017-12-02T04:09:00.339Z,98292.11
2017-12-02T04:09:31.974Z,98291.73
2017-12-02T04:10:03.613Z,98297.70
2017-12-02T04:10:35.210Z,98296.00
2017-12-02T04:11:06.823Z,98299.37
2017-12-02T04:11:38.466Z,98293.03
2017-12-02T04:12:10.183Z,98298.98
2017-12-02T04:12:41.840Z,98299.83
2017-12-02T04:13:13.716Z,98297.27
2017-12-02T04:13:45.363Z,98295.56
2017-12-02T04:14:16.998Z,98298.52
2017-12-02T04:14:48.623Z,98300.67
2017-12-02T04:15:20.246Z,98297.27
2017-12-02T04:15:51.989Z,98297.70
2017-12-02T04:16:23.625Z,98296.39
2017-12-02T04:16:55.286Z,98292.56
2017-12-02T04:17:27.103Z,98294.28
2017-12-02T04:17:58.858Z,98295.56
2017-12-02T04:18:30.463Z,98298.55
2017-12-02T04:19:02.115Z,98298.54
2017-12-02T04:19:33.718Z,98303.22
2017-12-02T04:20:05.425Z,98300.64
2017-12-02T04:20:37.068Z,98308.34
2017-12-02T04:21:08.707Z,98303.66
2017-12-02T04:21:40.344Z,98298.55
2017-12-02T04:22:11.986Z,98305.79
2017-12-02T04:22:43.583Z,98304.09
2017-12-02T04:23:15.183Z,98304.14
2017-12-02T04:23:46.919Z,98301.16
2017-12-02T04:24:18.560Z,98300.73
2017-12-02T04:24:50.200Z,98306.27
2017-12-02T04:25:21.844Z,98305.00
2017-12-02T04:25:53.494Z,98304.19
2017-12-02T04:26:25.436Z,98308.41
2017-12-02T04:26:57.087Z,98302.02
2017-12-02T04:27:28.717Z,98305.84
2017-12-02T04:28:00.313Z,98299.89
2017-12-02T04:28:31.938Z,98305.86
2017-12-02T04:29:04.200Z,98303.29
2017-12-02T04:29:35.875Z,98305.80
2017-12-02T04:30:07.495Z,98301.96
2017-12-02T04:30:39.127Z,98308.76
2017-12-02T04:31:10.779Z,98300.64
2017-12-02T04:31:42.402Z,98311.74
2017-12-02T04:32:14.113Z,98310.05
2017-12-02T04:32:45.714Z,98299.41
2017-12-02T04:33:17.402Z,98305.37
2017-12-02T04:33:49.007Z,98308.78
2017-12-02T04:34:20.635Z,98309.21
2017-12-02T04:34:52.250Z,98310.91
2017-12-02T04:35:23.878Z,98314.31
2017-12-02T04:35:55.605Z,98311.80
2017-12-02T04:36:27.250Z,98307.55
2017-12-02T04:36:58.889Z,98315.21
2017-12-02T04:37:30.532Z,98310.95
2017-12-02T04:38:02.134Z,98313.03
2017-12-02T04:38:33.784Z,98311.75
2017-12-02T04:39:05.387Z,98307.08
2017-12-02T04:39:37.006Z,98308.78
2017-12-02T04:40:08.745Z,98312.19
2017-12-02T04:40:40.383Z,98311.80
2017-12-02T04:41:12.026Z,98316.06
2017-12-02T04:41:43.627Z,98314.83
2017-12-02T04:42:15.245Z,98316.97
2017-12-02T04:42:46.850Z,98319.13
2017-12-02T04:43:18.450Z,98314.83
2017-12-02T04:43:50.234Z,98319.90
2017-12-02T04:44:21.875Z,98316.91
2017-12-02T04:44:53.478Z,98318.62
2017-12-02T04:45:25.079Z,98316.92
2017-12-02T04:45:56.722Z,98321.18
2017-12-02T04:46:28.443Z,98314.79
2017-12-02T04:47:00.047Z,98317.72
2017-12-02T04:47:31.727Z,98324.58
2017-12-02T04:48:03.355Z,98320.70
2017-12-02T04:48:34.963Z,98317.77
2017-12-02T04:49:06.590Z,98316.87
2017-12-02T04:49:38.214Z,98318.15
2017-12-02T04:50:10.239Z,98321.55
2017-12-02T04:50:41.884Z,98320.70
2017-12-02T04:51:13.555Z,98323.72
2017-12-02T04:51:45.182Z,98312.66
2017-12-02T04:52:16.808Z,98316.06
2017-12-02T04:52:48.450Z,98316.06
2017-12-02T04:53:20.049Z,98313.98
2017-12-02T04:53:51.656Z,98320.36
2017-12-02T04:54:23.379Z,98319.47
2017-12-02T04:54:54.983Z,98316.92
2017-12-02T04:55:26.602Z,98322.03
2017-12-02T04:55:58.202Z,98322.92
2017-12-02T04:56:29.854Z,98325.01
2017-12-02T04:57:01.588Z,98323.30
2017-12-02T04:57:33.190Z,98323.72
2017-12-02T04:58:04.814Z,98325.85
2017-12-02T04:58:36.438Z,98326.70
2017-12-02T04:59:08.156Z,98326.28
2017-12-02T04:59:39.795Z,98324.63
2017-12-02T05:00:11.422Z,98327.13
2017-12-02T05:00:43.031Z,98322.45
2017-12-02T05:01:14.650Z,98333.52
2017-12-02T05:01:46.318Z,98329.68
2017-12-02T05:02:17.947Z,98332.23
2017-12-02T05:02:49.551Z,98330.92
2017-12-02T05:03:21.291Z,98334.31
2017-12-02T05:03:52.899Z,98330.53
2017-12-02T05:04:24.527Z,98332.23
2017-12-02T05:04:56.130Z,98330.97
2017-12-02T05:05:27.861Z,98329.73
2017-12-02T05:05:59.499Z,98328.45
2017-12-02T05:06:31.179Z,98329.69
2017-12-02T05:07:03.008Z,98336.11
2017-12-02T05:07:34.733Z,98330.58
2017-12-02T05:08:06.375Z,98336.11
2017-12-02T05:08:37.978Z,98334.38
2017-12-02T05:09:09.586Z,98336.92
2017-12-02T05:09:41.301Z,98336.92
2017-12-02T05:10:12.902Z,98332.67
2017-12-02T05:10:44.506Z,98336.12
2017-12-02T05:11:16.227Z,98335.23
2017-12-02T05:11:47.850Z,98338.63
2017-12-02T05:12:19.505Z,98338.20
2017-12-02T05:12:51.150Z,98340.37
2017-12-02T05:13:22.793Z,98337.39
2017-12-02T05:13:54.399Z,98335.27
2017-12-02T05:14:26.026Z,98331.02
2017-12-02T05:14:57.634Z,98335.73
2017-12-02T05:15:29.363Z,98334.45
2017-12-02T05:16:01.001Z,98339.95
2017-12-02T05:16:32.645Z,98335.66
2017-12-02T05:17:04.287Z,98339.48
2017-12-02T05:17:35.886Z,98336.11
2017-12-02T05:18:07.486Z,98337.77
2017-12-02T05:18:39.114Z,98341.61
2017-12-02T05:19:10.855Z,98336.12
2017-12-02T05:19:42.494Z,98339.10
2017-12-02T05:20:14.138Z,98338.72
2017-12-02T05:20:45.742Z,98336.59
2017-12-02T05:21:17.350Z,98340.47
2017-12-02T05:21:48.974Z,98341.27
2017-12-02T05:22:20.662Z,98337.91
2017-12-02T05:22:52.295Z,98336.63
2017-12-02T05:23:23.902Z,98343.02
2017-12-02T05:23:55.632Z,98337.06
2017-12-02T05:24:27.234Z,98337.48
2017-12-02T05:24:58.861Z,98343.48
2017-12-02T05:25:30.483Z,98340.85
2017-12-02T05:26:02.108Z,98340.05
2017-12-02T05:26:33.842Z,98339.66
2017-12-02T05:27:05.442Z,98344.77
2017-12-02T05:27:37.125Z,98344.77
2017-12-02T05:28:08.730Z,98338.81
2017-12-02T05:28:40.354Z,98339.23
2017-12-02T05:29:11.986Z,98335.45
2017-12-02T05:29:43.693Z,98338.39
2017-12-02T05:30:15.290Z,98340.55
2017-12-02T05:30:46.894Z,98344.81
2017-12-02T05:31:18.619Z,98348.65
2017-12-02T05:31:50.264Z,98342.27
2017-12-02T05:32:21.902Z,98343.08
2017-12-02T05:32:53.573Z,98344.77
2017-12-02T05:33:25.203Z,98349.84
2017-12-02T05:33:56.870Z,98354.52
2017-12-02T05:34:28.498Z,98353.23
2017-12-02T05:35:00.150Z,98351.20
2017-12-02T05:35:31.770Z,98349.45
2017-12-02T05:36:03.393Z,98348.59
2017-12-02T05:36:35.037Z,98342.69
2017-12-02T05:37:06.676Z,98344.34
2017-12-02T05:37:38.275Z,98344.73
2017-12-02T05:38:09.902Z,98345.20
2017-12-02T05:38:41.512Z,98342.21
2017-12-02T05:39:13.260Z,98350.72
2017-12-02T05:39:44.886Z,98348.55
2017-12-02T05:40:16.562Z,98352.80
2017-12-02T05:40:48.186Z,98347.70
2017-12-02T05:41:19.814Z,98346.00
2017-12-02T05:41:51.456Z,98348.56
2017-12-02T05:42:23.096Z,98346.86
2017-12-02T05:42:54.710Z,98351.16
2017-12-02T05:43:26.337Z,98351.16
2017-12-02T05:43:57.971Z,98352.44
2017-12-02T05:44:29.598Z,98349.88
2017-12-02T05:45:01.219Z,98354.14
2017-12-02T05:45:32.867Z,98350.30
2017-12-02T05:46:04.591Z,98354.94
2017-12-02T05:46:36.233Z,98356.22
2017-12-02T05:47:08.218Z,98352.85
2017-12-02T05:47:40.133Z,98359.66
2017-12-02T05:48:12.081Z,98359.20
2017-12-02T05:48:43.723Z,98359.20
2017-12-02T05:49:15.365Z,98361.80
2017-12-02T05:49:47.011Z,98361.36
2017-12-02T05:50:18.648Z,98361.36
2017-12-02T05:50:50.246Z,98360.91
2017-12-02T05:51:21.874Z,98363.49
2017-12-02T05:51:53.502Z,98366.00
2017-12-02T05:52:25.122Z,98361.70
2017-12-02T05:52:56.858Z,98363.45
2017-12-02T05:53:28.499Z,98360.91
2017-12-02T05:54:00.142Z,98361.33
2017-12-02T05:54:31.786Z,98360.05
2017-12-02T05:55:03.434Z,98366.00
2017-12-02T05:55:35.375Z,98361.36
2017-12-02T05:56:07.050Z,98363.92
2017-12-02T05:56:38.965Z,98363.07
2017-12-02T05:57:10.608Z,98364.35
2017-12-02T05:57:42.246Z,98360.94
2017-12-02T05:58:13.846Z,98366.86
2017-12-02T05:58:45.454Z,98363.45
2017-12-02T05:59:17.078Z,98365.16
2017-12-02T05:59:48.817Z,98365.16
2017-12-02T06:00:20.458Z,98363.88
2017-12-02T06:00:52.103Z,98367.72
2017-12-02T06:01:23.747Z,98366.05
2017-12-02T06:01:55.638Z,98365.59
2017-12-02T06:02:27.242Z,98370.27
2017-12-02T06:02:58.976Z,98369.84
2017-12-02T06:03:30.646Z,98374.91
2017-12-02T06:04:02.303Z,98371.07
2017-12-02T06:04:33.902Z,98371.06
2017-12-02T06:05:05.543Z,98368.09
2017-12-02T06:05:37.185Z,98366.81
2017-12-02T06:06:08.827Z,98372.77
2017-12-02T06:06:40.466Z,98371.08
2017-12-02T06:07:12.111Z,98374.90
2017-12-02T06:07:43.753Z,98371.92
2017-12-02T06:08:15.350Z,98369.41
2017-12-02T06:08:47.030Z,98368.98
2017-12-02T06:09:18.678Z,98367.67
2017-12-02T06:09:50.286Z,98372.34
2017-12-02T06:10:21.886Z,98369.33
2017-12-02T06:10:53.514Z,98376.09
2017-12-02T06:11:25.247Z,98370.98
2017-12-02T06:11:56.885Z,98379.49